x

9087069 - Kewaunee, Wi (kwnw3) Weather Station

3:54pm - Mon 31st Aug 2015 All times are CDT. -5 hours from GMT.

  • Wind
    16mph, 18mph gusts
  • Air Temp 55°f
  • Sea Pressure 1014.8mb
  • 9087069 - Kewaunee, Wi
  • 9087069 - Kewaunee, Wi

More Historic Weather Station data

Upgrade to MSW Pro to gain access to the past 30 days of data for over 8000 Wavebouys and Weather Stations around the globe.

Join Pro

Comparision Forecast

View Surf forecast
   
Mon 08/31 3:54pm 16 18 mph 1014.8mb 55f
3:48pm 15 17 mph 1014.9mb 56f
3:42pm 14 16 mph 1014.9mb 56f
3:36pm 16 18 mph 1014.9mb 56f
3:30pm 14 17 mph 1015mb 56f
3:24pm 14 16 mph 1015mb 57f
3:18pm 16 17 mph 1015mb 57f
3:12pm 16 17 mph 1015.1mb 57f
3:06pm 14 18 mph 1015.2mb 57f
3:00pm 14 16 mph 1015.2mb 57f
2:54pm 17
mph
1015.2mb 56f
2:48pm 15 16 mph 1015.2mb 56f
2:42pm 15 20 mph 1015.3mb 57f
2:36pm 16 17 mph 1015.4mb 56f
2:30pm 15 17 mph 1015.4mb 56f
2:24pm 13 15 mph 1015.4mb 56f
2:18pm 13 16 mph 1015.5mb 56f
2:12pm 14 16 mph 1015.5mb 58f
2:06pm 14 17 mph 1015.6mb 57f
2:00pm 14 15 mph 1015.6mb 56f
1:54pm 14 15 mph 1015.7mb 55f
1:48pm 11 14 mph 1015.6mb 54f
1:42pm 13 14 mph 1015.7mb 55f
1:36pm 14 16 mph 1015.8mb 55f
1:30pm 14 15 mph 1015.8mb 54f
1:24pm 14 15 mph 1015.8mb 54f
1:18pm 14 17 mph 1015.9mb 54f
1:12pm 14 16 mph 1015.9mb 54f
1:06pm 13 15 mph 1016mb 54f
1:00pm 13 14 mph 1016mb 53f
12:54pm 14
mph
1015.9mb 53f
12:48pm 10 11 mph 1015.9mb 52f
12:42pm 11 13 mph 1016mb 52f
12:36pm 9 11 mph 1016.1mb 52f
12:30pm 8 10 mph 1016.2mb 52f
12:24pm 8 10 mph 1016.1mb 52f
12:18pm 5 9 mph 1016.1mb 52f
12:12pm 7 9 mph 1016.2mb 51f
12:06pm 7 10 mph 1016.2mb 51f
12:00pm 8 10 mph 1016.3mb 51f
11:54am 8 9 mph 1016.3mb 52f
11:48am 7 9 mph 1016.4mb 51f
11:42am 7 8 mph 1016.5mb 52f
11:36am 7 10 mph 1016.4mb 52f
11:30am 8 9 mph 1016.5mb 52f
11:24am 8 10 mph 1016.4mb 53f
11:18am 8 10 mph 1016.4mb 54f
11:12am 8 9 mph 1016.4mb 56f
11:06am 3 6 mph 1016.3mb 55f
11:00am 5 7 mph 1016.3mb 53f
Fri 08/28 12:30pm 13 14 mph 1018.5mb 52f
12:24pm 13 15 mph 1018.6mb 53f
12:18pm 14 16 mph 1018.7mb 53f
12:12pm 14 16 mph 1018.7mb 53f
12:06pm 14 16 mph 1018.7mb 53f
12:00pm 15 17 mph 1018.7mb 53f
11:54am 15 16 mph 1018.8mb 52f
11:48am 15 17 mph 1018.9mb 51f
11:42am 13 14 mph 1018.9mb 51f
11:36am 11 14 mph 1019mb 51f
11:30am 13 14 mph 1019.1mb 51f
11:24am 13 14 mph 1019.2mb 51f
11:18am 13 14 mph 1019.2mb 51f
11:12am 13 14 mph 1019.2mb 51f
11:06am 11 13 mph 1019.2mb 51f
11:00am 10 11 mph 1019.2mb 51f
10:54am 10 11 mph 1019.2mb 51f
10:48am 8 10 mph 1019.3mb 51f
10:42am 10 14 mph 1019.3mb 52f
10:36am 11 13 mph 1019.3mb 51f
10:30am 11 13 mph 1019.3mb 51f
10:24am 11 13 mph 1019.3mb 50f
10:18am 10 11 mph 1019.2mb 50f
10:12am 10 11 mph 1019.2mb 51f
10:06am 10 11 mph 1019.1mb 51f
10:00am 10 11 mph 1019.1mb 50f
9:54am 10 13 mph 1019.1mb 50f
9:48am 11 13 mph 1019.1mb 50f
9:42am 9 10 mph 1019mb 50f
9:36am 9 10 mph 1019mb 50f
9:30am 8 10 mph 1019mb 50f
9:24am 8 9 mph 1019mb 50f
9:18am 8 9 mph 1018.9mb 50f
9:12am 9 10 mph 1019mb 50f
9:06am 6 10 mph 1018.9mb 51f
9:00am 8 9 mph 1018.9mb 50f
8:54am 7 10 mph 1018.9mb 50f
8:48am 8 10 mph 1019mb 50f
8:42am 7 9 mph 1019mb 50f
8:36am 6 7 mph 1019mb 51f
8:30am 5 7 mph 1019mb 51f
8:24am 3
mph
1019.1mb 51f
8:18am 2 6 mph 1019.1mb 51f
8:12am 5 6 mph 1019.2mb 52f
8:06am 2 5 mph 1019.2mb 51f
8:00am 3 5 mph 1019.2mb 51f
7:54am 5 6 mph 1019.2mb 51f
7:48am 5 6 mph 1019.3mb 50f
7:42am 3 5 mph 1019.2mb 50f
7:36am 3 5 mph 1019.2mb 50f
7:30am 6 7 mph 1019.2mb 50f
7:24am 6 8 mph 1019.3mb 50f
7:18am 5 6 mph 1019.3mb 50f
7:12am 6 7 mph 1019.3mb 51f
7:06am 6 8 mph 1019.2mb 52f
7:00am 5 7 mph 1019.2mb 54f
6:54am 5 6 mph 1019.1mb 53f
6:48am 6 7 mph 1019mb 53f
6:42am 6 7 mph 1018.9mb 54f
6:36am 5 7 mph 1018.9mb 59f
6:30am 6 7 mph 1018.9mb 58f
6:24am 5 7 mph 1018.8mb 53f
6:18am 5 6 mph 1018.7mb 51f
6:12am 5
mph
1018.5mb 51f
6:06am 3 5 mph 1018.5mb 51f
6:00am 5 6 mph 1018.5mb 50f
5:54am 6 7 mph 1018.4mb 50f
5:48am 5 6 mph 1018.4mb 49f
5:42am 5
mph
1018.4mb 49f
5:36am 3 5 mph 1018.4mb 49f
5:30am 2 3 mph 1018.3mb 49f
5:24am 3
mph
1018.4mb 49f
5:18am 2 3 mph 1018.4mb 49f
5:12am 2 3 mph 1018.4mb 49f
5:06am 2 3 mph 1018.3mb 49f
5:00am 2 3 mph 1018.3mb 49f
4:54am 2 3 mph 1018.3mb 49f
4:48am 1 2 mph 1018.3mb 49f
4:42am 1 3 mph 1018.3mb 50f
4:36am 2 3 mph 1018.3mb 50f
4:30am 3 6 mph 1018.3mb 50f
4:24am 5 6 mph 1018.4mb 50f
4:18am 5 7 mph 1018.3mb 50f
4:12am 6 7 mph 1018.2mb 50f
4:06am 6 7 mph 1018.2mb 50f
4:00am 5 6 mph 1018.3mb 50f
3:54am 5 6 mph 1018.3mb 50f
3:48am 3 5 mph 1018.3mb 51f
3:42am 6
mph
1018.4mb 51f
3:36am 5 6 mph 1018.4mb 51f
3:30am 5 7 mph 1018.4mb 53f
3:24am 7 8 mph 1018.4mb 58f
3:18am 6 9 mph 1018.4mb 60f
3:12am 7 9 mph 1018.4mb 60f
3:06am 8 11 mph 1018.4mb 60f
3:00am 7 11 mph 1018.2mb 60f
2:54am 8 11 mph 1018.1mb 60f
2:48am 8 11 mph 1018mb 61f
2:42am 7 10 mph 1018mb 61f
2:36am 9 13 mph 1017.9mb 59f
2:30am 9 13 mph 1017.9mb 54f
2:24am 9 10 mph 1017.9mb 57f
2:18am  -  mph - 60f
2:12am  -  mph - 61f
2:06am  -  mph - 61f
2:00am 9 13 mph 1018.3mb 61f
1:54am 8 13 mph 1018.3mb 62f
1:48am 11 16 mph 1018.3mb 62f
1:42am 13 16 mph 1018.3mb 62f
1:36am 11 16 mph 1018.3mb 62f
1:30am 11 16 mph 1018.2mb 61f
1:24am 11 17 mph 1018.2mb 60f
1:18am 9 14 mph 1018.2mb 59f
1:12am 8 14 mph 1018.3mb 61f
1:06am 9 13 mph 1018.3mb 61f
1:00am 10 14 mph 1018.3mb 61f
12:54am 9 11 mph 1018.3mb 56f
12:48am 7 8 mph 1018.2mb 55f
12:42am 7 10 mph 1018.2mb 54f
12:36am 8 9 mph 1018.2mb 56f
12:30am 7 8 mph 1018.3mb 57f
12:24am 7 9 mph 1018.3mb 55f
12:18am 7 9 mph 1018.2mb 53f
12:12am 7 8 mph 1018.3mb 52f
12:06am 7 9 mph 1018.2mb 51f
12:00am 8 9 mph 1018.2mb 51f
Thu 08/27 11:54pm 9 10 mph 1018.1mb 52f
11:48pm 9
mph
1018mb 51f
11:42pm 8
mph
1018mb 51f
11:36pm 8 9 mph 1018.1mb 51f
11:30pm 7 8 mph 1018.1mb 51f
11:24pm 7 9 mph 1018.1mb 51f
11:18pm 7 9 mph 1018.2mb 51f
11:12pm 7 9 mph 1018.3mb 51f
11:06pm 7 9 mph 1018.4mb 53f
11:00pm 8 10 mph 1018.5mb 53f
10:54pm 8 9 mph 1018.5mb 53f
10:48pm 8 9 mph 1018.6mb 54f
10:42pm 8 9 mph 1018.7mb 54f
10:36pm 8 9 mph 1018.8mb 54f
10:30pm 8 10 mph 1018.7mb 55f
10:24pm 9 10 mph 1018.6mb 55f
10:18pm 9 10 mph 1018.8mb 53f
10:12pm 8 9 mph 1018.7mb 51f
10:06pm 8
mph
1018.8mb 51f
10:00pm 7 8 mph 1018.8mb 51f